Time;durP1;ratioP1;P1;durP2;ratioP2;P2;SDS_P1;SDS_P2;PMS_P1;PMS_P2;Temp;Humidity;BMP_temperature;BMP_pressure;BME280_temperature;BME280_humidity;BME280_pressure;Samples;Min_cycle;Max_cycle;Signal;HPM_P1;HPM_P2
2023/10/13 00:00:26;;;;;;;2.05;1.45;;;;;;;19.83;100.00;96417.97;5034962;28;20197;-70
2023/10/13 00:02:53;;;;;;;3.55;1.58;;;;;;;19.68;100.00;96412.22;5035368;28;20235;-70
2023/10/13 00:05:20;;;;;;;2.70;1.50;;;;;;;19.64;100.00;96411.06;5036549;28;20204;-70
2023/10/13 00:07:47;;;;;;;4.05;1.83;;;;;;;19.65;100.00;96407.34;5035806;28;20197;-70
2023/10/13 00:10:13;;;;;;;3.78;1.67;;;;;;;19.62;100.00;96404.31;5035674;28;20235;-70
2023/10/13 00:12:40;;;;;;;9.27;1.50;;;;;;;19.57;100.00;96398.03;5035881;28;20221;-70
2023/10/13 00:15:13;;;;;;;1.92;1.30;;;;;;;19.75;100.00;96394.22;5035812;28;20201;-70
2023/10/13 00:17:41;;;;;;;4.15;1.63;;;;;;;19.56;100.00;96391.03;5035931;28;20318;-70
2023/10/13 00:20:16;;;;;;;2.30;1.33;;;;;;;19.62;100.00;96393.63;5035678;28;20391;-70
2023/10/13 00:22:44;;;;;;;2.67;1.58;;;;;;;19.54;100.00;96388.59;5035115;28;20228;-70
2023/10/13 00:25:19;;;;;;;8.48;1.42;;;;;;;19.54;100.00;96398.47;5035514;28;20265;-70
2023/10/13 00:27:48;;;;;;;6.18;2.05;;;;;;;19.46;100.00;96401.47;5035707;28;20193;-70
2023/10/13 00:30:21;;;;;;;4.88;1.75;;;;;;;19.66;100.00;96398.25;5035494;28;20259;-70
2023/10/13 00:32:53;;;;;;;2.85;1.60;;;;;;;19.62;100.00;96397.09;5035748;28;20225;-70
2023/10/13 00:35:28;;;;;;;4.85;1.77;;;;;;;19.54;100.00;96401.97;5035994;28;20208;-70
2023/10/13 00:37:56;;;;;;;2.22;1.38;;;;;;;19.61;100.00;96406.19;5034310;28;20311;-70
2023/10/13 00:45:56;;;;;;;4.05;1.60;;;;;;;19.55;100.00;96394.75;5035000;28;20274;-70
2023/10/13 00:48:24;;;;;;;5.15;1.65;;;;;;;19.37;100.00;96400.16;5034646;28;20224;-70
2023/10/13 00:50:51;;;;;;;4.15;1.55;;;;;;;19.39;100.00;96406.09;5035302;28;20197;-70
2023/10/13 00:53:17;;;;;;;5.97;1.67;;;;;;;19.35;100.00;96394.25;5035356;28;20229;-70
2023/10/13 00:55:44;;;;;;;7.65;2.42;;;;;;;19.19;100.00;96392.97;5034742;28;20678;-70
2023/10/13 00:58:12;;;;;;;3.30;1.30;;;;;;;19.26;100.00;96395.59;5034618;28;20231;-70
2023/10/13 01:00:47;;;;;;;3.72;1.52;;;;;;;19.12;100.00;96394.13;5035821;28;20205;-69
2023/10/13 01:03:14;;;;;;;4.55;2.10;;;;;;;19.33;100.00;96396.31;5034857;28;20278;-70
2023/10/13 01:05:41;;;;;;;3.38;1.67;;;;;;;19.18;100.00;96391.38;5035666;28;20216;-70
2023/10/13 01:08:10;;;;;;;4.15;1.63;;;;;;;19.10;100.00;96388.19;5035635;28;20203;-69
2023/10/13 01:10:37;;;;;;;6.30;2.00;;;;;;;19.00;100.00;96390.53;5035077;28;20197;-70
2023/10/13 01:13:04;;;;;;;2.40;1.60;;;;;;;19.00;100.00;96387.88;5035236;28;20221;-70
2023/10/13 01:15:33;;;;;;;5.40;1.63;;;;;;;18.87;100.00;96388.03;5035868;28;20288;-70
2023/10/13 01:18:11;;;;;;;4.63;1.45;;;;;;;19.01;100.00;96386.84;5034862;28;20233;-70
2023/10/13 01:20:43;;;;;;;3.60;1.90;;;;;;;18.92;100.00;96388.19;5035601;28;20252;-69
2023/10/13 01:23:18;;;;;;;4.32;1.92;;;;;;;18.89;100.00;96375.28;5034584;28;20328;-70
2023/10/13 01:25:45;;;;;;;6.18;2.40;;;;;;;18.96;100.00;96373.34;5035026;28;20201;-70
2023/10/13 01:28:15;;;;;;;2.75;1.42;;;;;;;18.76;100.00;96383.47;5034564;28;20197;-69
2023/10/13 01:30:42;;;;;;;3.03;1.58;;;;;;;18.63;100.00;96380.13;5035266;28;20212;-69
2023/10/13 01:33:10;;;;;;;6.28;1.83;;;;;;;18.48;100.00;96385.84;5035043;28;20224;-70
2023/10/13 01:35:42;;;;;;;4.57;2.47;;;;;;;18.47;100.00;96376.19;5037451;28;20581;-70
2023/10/13 01:38:07;;;;;;;3.72;1.80;;;;;;;18.42;100.00;96376.03;5038027;28;20229;-70
2023/10/13 01:40:35;;;;;;;3.33;1.98;;;;;;;18.45;100.00;96377.47;5038430;28;20197;-69
2023/10/13 01:43:01;;;;;;;3.05;1.60;;;;;;;18.24;100.00;96377.06;5038572;28;20623;-70
2023/10/13 01:45:30;;;;;;;6.38;1.50;;;;;;;18.13;100.00;96377.78;5038554;28;20228;-70
2023/10/13 01:47:56;;;;;;;2.72;1.50;;;;;;;18.07;100.00;96382.13;5038760;28;20204;-70
2023/10/13 01:50:30;;;;;;;3.95;1.80;;;;;;;18.13;100.00;96388.44;5037675;28;20668;-69
2023/10/13 01:53:10;;;;;;;2.63;1.75;;;;;;;17.97;100.00;96380.97;5038433;28;20213;-69
2023/10/13 01:55:42;;;;;;;3.35;1.83;;;;;;;17.92;100.00;96378.16;5038627;28;20298;-69
2023/10/13 01:58:14;;;;;;;5.38;1.40;;;;;;;17.73;100.00;96381.78;5037683;28;20221;-69
2023/10/13 02:00:42;;;;;;;2.25;1.35;;;;;;;17.67;100.00;96388.00;5038215;28;20291;-69
2023/10/13 02:03:14;;;;;;;3.08;1.90;;;;;;;17.62;100.00;96385.19;5037844;28;20286;-69
2023/10/13 02:05:44;;;;;;;4.55;1.80;;;;;;;17.57;100.00;96379.69;5037622;28;20775;-69
2023/10/13 02:08:17;;;;;;;3.15;1.35;;;;;;;17.49;100.00;96377.28;5035793;28;20285;-69
2023/10/13 02:10:44;;;;;;;5.97;1.80;;;;;;;17.58;100.00;96380.47;5037925;28;20213;-69
2023/10/13 02:13:17;;;;;;;5.93;1.77;;;;;;;17.56;100.00;96378.03;5037291;28;20643;-69
2023/10/13 02:15:44;;;;;;;2.95;1.92;;;;;;;17.42;100.00;96376.50;5038606;28;20676;-69
2023/10/13 02:18:11;;;;;;;5.05;1.65;;;;;;;17.41;100.00;96379.38;5037123;28;20729;-69
2023/10/13 02:20:43;;;;;;;3.63;1.48;;;;;;;17.26;100.00;96382.34;5037604;28;20212;-69
2023/10/13 02:23:10;;;;;;;4.38;1.95;;;;;;;17.20;100.00;96379.69;5036986;28;20284;-69
2023/10/13 02:25:42;;;;;;;3.08;1.60;;;;;;;17.17;100.00;96372.13;5038778;28;20292;-69
2023/10/13 02:28:14;;;;;;;3.65;1.83;;;;;;;17.29;100.00;96379.25;5036925;28;20347;-69
2023/10/13 02:30:44;;;;;;;6.53;2.20;;;;;;;17.11;100.00;96379.13;5037820;28;20197;-69
2023/10/13 02:33:12;;;;;;;8.52;2.10;;;;;;;17.09;100.00;96381.19;5037316;28;20602;-69
2023/10/13 02:35:41;;;;;;;4.68;1.90;;;;;;;16.97;100.00;96381.25;5037895;28;20200;-69
2023/10/13 02:38:11;;;;;;;3.78;1.90;;;;;;;16.86;100.00;96380.06;5036814;28;20229;-69
2023/10/13 02:40:37;;;;;;;4.72;2.08;;;;;;;16.82;100.00;96378.06;5037800;28;20462;-69
2023/10/13 02:43:04;;;;;;;6.68;1.73;;;;;;;16.87;100.00;96378.25;5037636;28;20232;-69
2023/10/13 02:45:32;;;;;;;4.15;1.90;;;;;;;16.99;100.00;96374.69;5037408;28;20205;-69
2023/10/13 02:48:12;;;;;;;4.15;2.08;;;;;;;16.71;100.00;96374.22;5036041;28;20193;-69
2023/10/13 02:50:43;;;;;;;4.85;1.70;;;;;;;16.93;100.00;96374.72;5037566;28;20207;-69
2023/10/13 02:53:12;;;;;;;5.53;1.92;;;;;;;16.81;100.00;96369.25;5036883;28;20248;-69
2023/10/13 02:55:39;;;;;;;2.72;1.60;;;;;;;16.81;100.00;96369.25;5037486;28;20255;-69
2023/10/13 02:58:05;;;;;;;5.95;2.33;;;;;;;16.74;100.00;96367.66;5036518;28;20255;-69
2023/10/13 03:00:33;;;;;;;3.33;1.60;;;;;;;16.91;100.00;96363.47;5037336;28;20201;-69
2023/10/13 03:03:00;;;;;;;5.53;2.22;;;;;;;16.71;100.00;96370.72;5036668;28;20570;-69
2023/10/13 03:05:29;;;;;;;3.72;1.83;;;;;;;16.65;100.00;96359.09;5037508;28;20553;-69
2023/10/13 03:07:55;;;;;;;3.63;1.65;;;;;;;16.63;100.00;96352.34;5036503;28;20193;-69
2023/10/13 03:10:21;;;;;;;4.70;2.10;;;;;;;16.66;100.00;96357.25;5035878;28;20742;-69
2023/10/13 03:12:48;;;;;;;4.00;1.77;;;;;;;16.71;100.00;96362.75;5036843;28;20225;-69
2023/10/13 03:15:17;;;;;;;4.50;2.15;;;;;;;16.85;100.00;96356.34;5037085;28;20292;-69
2023/10/13 03:17:46;;;;;;;5.50;2.50;;;;;;;16.97;100.00;96347.47;5036483;28;20267;-69
2023/10/13 03:20:15;;;;;;;2.83;1.92;;;;;;;16.86;100.00;96352.66;5036273;28;20201;-69
2023/10/13 03:22:44;;;;;;;3.42;1.88;;;;;;;16.81;100.00;96355.94;5035962;28;20217;-69
2023/10/13 03:25:17;;;;;;;3.33;1.80;;;;;;;16.85;100.00;96357.16;5036121;28;20205;-69
2023/10/13 03:28:00;;;;;;;2.42;1.80;;;;;;;16.89;100.00;96358.38;5036719;28;20290;-69
2023/10/13 03:30:35;;;;;;;3.50;1.88;;;;;;;16.92;100.00;96351.81;5037169;28;20258;-69
2023/10/13 03:33:06;;;;;;;3.85;2.35;;;;;;;17.06;100.00;96350.72;5036392;28;20217;-69
2023/10/13 03:35:39;;;;;;;4.55;2.13;;;;;;;16.96;100.00;96345.84;5036785;28;20209;-69
2023/10/13 03:38:11;;;;;;;3.50;1.75;;;;;;;16.84;100.00;96354.69;5036190;28;20568;-69
2023/10/13 03:40:38;;;;;;;5.22;1.77;;;;;;;16.80;100.00;96338.34;5036478;28;20619;-69
2023/10/13 03:43:06;;;;;;;2.72;1.83;;;;;;;16.79;100.00;96342.03;5035882;28;20833;-69
2023/10/13 03:45:37;;;;;;;5.40;2.15;;;;;;;16.90;100.00;96337.88;5037278;28;20609;-69
2023/10/13 03:48:08;;;;;;;3.58;2.35;;;;;;;16.94;100.00;96331.94;5036299;28;20243;-69
2023/10/13 03:50:36;;;;;;;2.92;1.85;;;;;;;16.74;100.00;96335.72;5036361;28;20295;-69
2023/10/13 03:53:05;;;;;;;3.90;2.00;;;;;;;16.72;100.00;96335.13;5036259;28;21095;-69
2023/10/13 03:55:34;;;;;;;2.70;1.98;;;;;;;16.63;100.00;96326.53;5036588;28;20215;-69
2023/10/13 03:58:03;;;;;;;6.40;2.10;;;;;;;16.68;100.00;96321.41;5035224;28;20201;-69
2023/10/13 04:00:31;;;;;;;8.38;2.53;;;;;;;16.81;100.00;96323.19;5035474;28;20263;-69
2023/10/13 04:03:08;;;;;;;2.83;1.58;;;;;;;16.75;100.00;96318.72;5036001;28;20231;-69
2023/10/13 04:05:40;;;;;;;2.45;1.55;;;;;;;16.89;100.00;96314.94;5035048;28;20197;-69
2023/10/13 04:19:09;;;;;;;5.55;2.15;;;;;;;16.51;100.00;96322.13;5035265;28;20239;-69
2023/10/13 04:21:42;;;;;;;6.00;3.15;;;;;;;16.51;100.00;96327.44;5035290;28;20295;-69
2023/10/13 04:24:09;;;;;;;5.70;2.17;;;;;;;16.31;100.00;96326.69;5035451;28;20232;-69
2023/10/13 04:26:42;;;;;;;6.80;2.38;;;;;;;16.11;100.00;96325.06;5035904;28;20215;-69
2023/10/13 04:29:27;;;;;;;4.93;2.03;;;;;;;16.09;100.00;96317.31;5035677;28;20298;-69
2023/10/13 04:32:00;;;;;;;10.38;3.00;;;;;;;16.26;100.00;96318.53;5034869;28;20201;-69
2023/10/13 04:34:28;;;;;;;9.93;2.10;;;;;;;15.92;100.00;96325.94;5036432;28;20209;-69
2023/10/13 04:37:22;;;;;;;8.27;3.08;;;;;;;16.08;100.00;96321.00;5035424;28;20216;-69
2023/10/13 04:39:56;;;;;;;4.18;1.90;;;;;;;15.82;100.00;96320.22;5034891;28;20225;-69
2023/10/13 04:42:39;;;;;;;7.45;2.80;;;;;;;15.81;100.00;96312.47;5035473;28;20220;-69
2023/10/13 04:45:16;;;;;;;6.03;2.33;;;;;;;15.82;100.00;96320.22;5035457;28;20766;-69
2023/10/13 04:47:57;;;;;;;4.03;2.38;;;;;;;15.80;100.00;96316.16;5035584;28;20251;-69
2023/10/13 04:50:27;;;;;;;5.28;2.70;;;;;;;15.79;100.00;96319.84;5035060;28;20608;-69
2023/10/13 04:53:02;;;;;;;5.40;2.35;;;;;;;15.86;100.00;96316.97;5036330;28;20347;-69
2023/10/13 04:55:48;;;;;;;8.23;2.40;;;;;;;15.75;100.00;96318.63;5035328;28;20215;-69
2023/10/13 04:58:45;;;;;;;3.65;2.20;;;;;;;15.76;100.00;96321.06;5035451;28;20216;-69
2023/10/13 05:04:21;;;;;;;5.10;2.63;;;;;;;15.76;100.00;96321.06;5035125;28;20224;-69
2023/10/13 05:45:36;;;;;;;5.07;2.28;;;;;;;16.35;100.00;96317.25;5038942;28;20212;-69
2023/10/13 05:48:05;;;;;;;4.45;1.73;;;;;;;16.57;100.00;96323.91;5037647;28;21167;-69
2023/10/13 06:29:19;;;;;;;4.70;2.45;;;;;;;16.00;100.00;96323.09;5036293;28;20301;-69
2023/10/13 06:31:47;;;;;;;3.60;2.10;;;;;;;16.29;100.00;96323.41;5037575;28;20209;-68
2023/10/13 06:34:15;;;;;;;5.05;2.08;;;;;;;16.13;100.00;96320.38;5038217;28;20319;-70
2023/10/13 06:36:46;;;;;;;6.88;1.90;;;;;;;16.19;100.00;96328.34;5037659;28;20695;-71
2023/10/13 06:39:34;;;;;;;6.32;2.17;;;;;;;16.22;100.00;96327.91;5037164;28;20227;-71
2023/10/13 06:42:02;;;;;;;5.97;2.43;;;;;;;16.50;100.00;96320.47;5038029;28;20320;-70
2023/10/13 06:44:32;;;;;;;8.30;2.03;;;;;;;16.64;100.00;96322.88;5037037;28;20205;-71
2023/10/13 06:47:03;;;;;;;4.60;2.00;;;;;;;16.91;100.00;96321.69;5037750;28;20201;-71
2023/10/13 06:49:32;;;;;;;4.05;1.40;;;;;;;16.86;100.00;96331.34;5036648;28;20306;-71
2023/10/13 06:52:00;;;;;;;2.78;1.63;;;;;;;17.06;100.00;96327.56;5037471;28;20219;-70
2023/10/13 06:54:28;;;;;;;5.80;1.65;;;;;;;17.10;100.00;96334.88;5037296;28;20232;-71
2023/10/13 06:56:55;;;;;;;4.50;1.90;;;;;;;17.25;100.00;96335.44;5036516;28;20675;-70
2023/10/13 06:59:26;;;;;;;4.63;1.70;;;;;;;17.31;100.00;96331.91;5036080;28;20257;-71
2023/10/13 07:01:52;;;;;;;4.53;1.92;;;;;;;17.39;100.00;96333.50;5034542;28;20722;-70
2023/10/13 07:04:21;;;;;;;2.97;1.48;;;;;;;17.49;100.00;96332.00;5035587;28;20225;-70
2023/10/13 07:06:48;;;;;;;2.78;1.40;;;;;;;17.52;100.00;96333.41;5035567;28;20214;-70
2023/10/13 07:09:39;;;;;;;3.10;1.55;;;;;;;17.62;100.00;96331.06;5035047;28;20212;-69
2023/10/13 07:12:07;;;;;;;2.60;1.38;;;;;;;17.79;100.00;96335.63;5035772;28;20292;-71
2023/10/13 07:14:34;;;;;;;6.18;1.60;;;;;;;17.86;100.00;96334.53;5036036;28;20206;-70
2023/10/13 07:17:02;;;;;;;4.32;1.55;;;;;;;17.93;100.00;96337.13;5036762;28;20826;-71
2023/10/13 07:19:30;;;;;;;3.40;1.55;;;;;;;18.11;100.00;96339.81;5033319;28;20940;-71
2023/10/13 07:21:59;;;;;;;5.97;2.10;;;;;;;17.99;100.00;96350.41;5035971;28;20207;-70
2023/10/13 07:24:27;;;;;;;5.88;1.95;;;;;;;18.06;100.00;96347.66;5035431;28;20581;-70
2023/10/13 07:27:03;;;;;;;4.10;1.60;;;;;;;18.21;99.59;96345.50;5035513;28;20197;-70
2023/10/13 07:29:29;;;;;;;3.67;1.90;;;;;;;17.98;100.00;96345.28;5034713;28;20694;-71
2023/10/13 07:31:56;;;;;;;5.50;1.70;;;;;;;18.43;98.05;96345.66;5033525;28;20531;-71
2023/10/13 07:34:26;;;;;;;6.60;2.10;;;;;;;18.64;96.42;96337.19;5036100;28;20201;-71
2023/10/13 07:36:58;;;;;;;5.55;2.13;;;;;;;18.95;97.44;96343.16;5035396;28;20201;-71
2023/10/13 07:39:25;;;;;;;6.95;2.03;;;;;;;18.83;96.16;96336.13;5034658;28;20229;-71
2023/10/13 07:42:03;;;;;;;4.38;1.67;;;;;;;19.06;99.22;96338.94;5035619;28;20625;-71
2023/10/13 07:44:33;;;;;;;2.90;1.50;;;;;;;19.05;94.00;96337.28;5035697;28;20694;-71
2023/10/13 07:47:02;;;;;;;7.15;1.75;;;;;;;19.32;91.96;96339.38;5034885;28;20204;-71
2023/10/13 07:49:31;;;;;;;3.33;1.55;;;;;;;19.51;89.46;96332.09;5034388;28;20243;-71
2023/10/13 07:52:14;;;;;;;18.08;1.60;;;;;;;19.64;90.60;96346.88;5034121;28;20215;-71
2023/10/13 07:54:47;;;;;;;3.50;1.40;;;;;;;19.63;91.66;96337.22;5034623;28;20278;-71
2023/10/13 07:57:14;;;;;;;1.38;0.82;;;;;;;19.38;92.64;96345.66;5034152;28;20284;-71
2023/10/13 07:59:47;;;;;;;3.92;1.30;;;;;;;19.63;92.11;96344.44;5035778;28;20220;-71
2023/10/13 08:02:15;;;;;;;4.15;1.75;;;;;;;19.76;93.05;96337.00;5035060;28;21094;-71
2023/10/13 08:04:41;;;;;;;2.55;1.48;;;;;;;19.76;94.73;96334.34;5036402;28;20201;-70
2023/10/13 08:07:15;;;;;;;4.40;1.48;;;;;;;19.97;93.73;96331.16;5036105;28;20201;-70
2023/10/13 08:09:43;;;;;;;3.13;1.33;;;;;;;20.00;95.13;96333.34;5035579;28;20201;-71
2023/10/13 08:12:11;;;;;;;2.30;1.38;;;;;;;20.05;92.40;96333.47;5035053;28;20339;-71
2023/10/13 08:14:39;;;;;;;6.53;1.23;;;;;;;20.11;92.74;96335.22;5036340;28;20299;-70
2023/10/13 08:17:07;;;;;;;5.40;1.10;;;;;;;20.15;90.55;96322.16;5035202;28;20216;-69
2023/10/13 08:19:41;;;;;;;3.75;1.20;;;;;;;20.36;91.07;96330.41;5035082;28;20390;-70
2023/10/13 08:22:24;;;;;;;2.38;1.30;;;;;;;20.71;90.23;96323.13;5035120;28;20554;-71
2023/10/13 08:27:49;;;;;;;9.32;2.25;;;;;;;20.76;87.30;96328.63;5034538;28;20201;-71
2023/10/13 08:30:29;;;;;;;4.68;1.13;;;;;;;20.99;87.17;96316.78;5034701;28;20212;-71
2023/10/13 08:32:56;;;;;;;6.07;1.30;;;;;;;21.37;85.24;96322.28;5035432;28;20292;-71
2023/10/13 08:35:33;;;;;;;4.80;1.65;;;;;;;21.18;83.79;96320.06;5035538;28;20211;-70
2023/10/13 08:38:13;;;;;;;7.90;1.52;;;;;;;21.45;85.51;96322.72;5033830;28;20730;-71
2023/10/13 08:41:25;;;;;;;2.47;1.13;;;;;;;21.68;84.27;96319.13;5035139;28;20244;-71
2023/10/13 08:43:42;;;;;;;3.92;1.65;;;;;;;21.76;78.66;96314.16;5036131;28;20228;-70
2023/10/13 08:46:24;;;;;;;2.70;1.10;;;;;;;21.80;76.78;96309.13;5038665;28;20331;-70
2023/10/13 08:48:53;;;;;;;3.55;1.00;;;;;;;21.80;73.77;96314.47;5039047;28;20371;-71
2023/10/13 08:51:35;;;;;;;2.95;1.08;;;;;;;22.16;70.53;96304.84;5039957;28;20197;-70
2023/10/13 08:54:09;;;;;;;2.65;1.05;;;;;;;22.13;69.13;96300.00;5038783;28;20631;-71
2023/10/13 08:56:36;;;;;;;5.35;1.10;;;;;;;22.13;67.86;96304.53;5038754;28;20213;-70
2023/10/13 08:59:06;;;;;;;1.33;0.80;;;;;;;22.18;68.25;96309.97;5038003;28;20444;-70
2023/10/13 09:01:34;;;;;;;1.52;1.10;;;;;;;22.25;65.16;96306.06;5038082;28;20217;-69
2023/10/13 09:04:20;;;;;;;2.50;1.15;;;;;;;22.14;64.59;96301.59;5038205;28;20870;-71
2023/10/13 09:06:57;;;;;;;2.00;0.98;;;;;;;22.31;65.38;96297.06;5039776;28;20275;-70
2023/10/13 09:09:34;;;;;;;3.13;0.90;;;;;;;22.76;65.14;96300.31;5038544;28;20205;-70
2023/10/13 09:12:07;;;;;;;3.92;0.93;;;;;;;22.45;62.83;96292.91;5038828;28;20312;-70
2023/10/13 09:14:36;;;;;;;1.85;1.10;;;;;;;22.77;62.31;96285.81;5039508;28;20319;-71
2023/10/13 09:17:12;;;;;;;4.15;0.70;;;;;;;23.00;60.92;96288.25;5039219;28;20201;-70
2023/10/13 09:19:55;;;;;;;3.15;1.20;;;;;;;23.22;61.08;96289.84;5038400;28;20221;-71
2023/10/13 09:22:26;;;;;;;3.28;1.30;;;;;;;23.33;61.08;96286.16;5038853;28;21077;-70
2023/10/13 09:24:58;;;;;;;3.67;1.40;;;;;;;23.25;62.20;96291.22;5039229;28;20201;-71
2023/10/13 09:27:26;;;;;;;10.88;2.03;;;;;;;23.30;61.72;96291.28;5038889;28;20228;-71
2023/10/13 09:29:57;;;;;;;3.58;1.10;;;;;;;23.36;61.06;96283.78;5038308;28;20221;-70
2023/10/13 09:32:23;;;;;;;2.35;1.30;;;;;;;23.12;61.91;96288.94;5039050;28;21084;-70
2023/10/13 09:34:50;;;;;;;1.63;0.90;;;;;;;23.29;60.35;96278.88;5038927;28;20212;-71
2023/10/13 09:37:20;;;;;;;1.63;0.98;;;;;;;23.24;61.74;96278.84;5038487;28;20567;-71
2023/10/13 09:39:51;;;;;;;5.60;1.30;;;;;;;23.26;60.02;96274.03;5035522;28;20727;-70
2023/10/13 09:42:19;;;;;;;4.75;1.48;;;;;;;23.49;60.99;96272.59;5037832;28;20252;-71
2023/10/13 09:44:51;;;;;;;4.82;1.40;;;;;;;23.58;59.73;96263.00;5037798;28;20947;-70
2023/10/13 09:47:30;;;;;;;2.90;1.17;;;;;;;23.67;58.30;96271.44;5037684;28;21109;-70
2023/10/13 09:50:03;;;;;;;2.80;0.90;;;;;;;23.63;59.91;96271.13;5037065;28;20201;-70
2023/10/13 09:52:31;;;;;;;2.38;0.90;;;;;;;23.96;59.94;96260.91;5037298;28;20248;-70
2023/10/13 09:55:13;;;;;;;2.55;1.10;;;;;;;24.03;61.16;96258.81;5036670;28;20881;-71
2023/10/13 09:57:48;;;;;;;2.42;0.98;;;;;;;24.23;58.97;96266.19;5036967;28;20204;-70
2023/10/13 10:00:36;;;;;;;2.90;1.20;;;;;;;24.02;61.72;96259.06;5037191;28;20634;-71
2023/10/13 10:03:14;;;;;;;3.60;1.30;;;;;;;24.01;61.25;96260.13;5038041;28;20770;-70
2023/10/13 10:05:39;;;;;;;3.95;1.63;;;;;;;24.23;61.18;96247.34;5038035;28;20209;-71
2023/10/13 10:08:09;;;;;;;4.80;1.10;;;;;;;24.20;58.96;96245.97;5036189;28;20970;-70
2023/10/13 10:10:56;;;;;;;1.85;1.13;;;;;;;24.55;59.81;96242.69;5037016;28;20205;-70
2023/10/13 10:13:35;;;;;;;1.80;1.05;;;;;;;24.39;58.83;96244.50;5036755;28;20354;-69
2023/10/13 10:16:14;;;;;;;4.22;1.13;;;;;;;24.59;59.74;96247.25;5037545;28;20207;-70
2023/10/13 10:18:41;;;;;;;2.55;0.93;;;;;;;24.50;60.57;96239.97;5038138;28;20213;-71
2023/10/13 10:21:09;;;;;;;2.38;0.93;;;;;;;24.59;60.40;96240.00;5037621;28;20217;-71
2023/10/13 10:23:39;;;;;;;13.75;1.88;;;;;;;24.86;59.55;96243.34;5037985;28;20221;-71
2023/10/13 10:26:13;;;;;;;2.28;0.90;;;;;;;24.94;58.23;96237.41;5037580;28;20197;-71
2023/10/13 10:28:43;;;;;;;4.22;1.08;;;;;;;24.88;58.15;96237.69;5037758;28;20574;-71
2023/10/13 10:31:12;;;;;;;2.80;1.30;;;;;;;25.00;57.05;96235.53;5037491;28;20619;-71
2023/10/13 10:33:39;;;;;;;4.95;1.38;;;;;;;25.14;57.36;96244.78;5038284;28;20287;-70
2023/10/13 10:36:06;;;;;;;6.68;1.10;;;;;;;25.19;56.54;96241.03;5037252;28;20201;-71
2023/10/13 10:38:37;;;;;;;7.88;0.80;;;;;;;25.12;56.55;96233.47;5037182;28;20775;-70
2023/10/13 10:41:05;;;;;;;2.22;0.93;;;;;;;25.31;55.99;96232.66;5037509;28;20316;-70
2023/10/13 10:43:45;;;;;;;3.30;1.35;;;;;;;25.79;55.50;96221.34;5037512;28;20263;-71
2023/10/13 10:46:16;;;;;;;1.65;1.15;;;;;;;25.79;55.88;96219.47;5036535;28;20726;-71
2023/10/13 10:48:43;;;;;;;1.92;1.08;;;;;;;25.72;54.71;96212.75;5037378;28;20209;-71
2023/10/13 10:51:21;;;;;;;4.75;1.10;;;;;;;25.80;53.48;96209.47;5037842;28;20197;-71
2023/10/13 10:53:49;;;;;;;7.40;1.42;;;;;;;25.82;54.02;96200.81;5037705;28;20324;-71
2023/10/13 10:56:36;;;;;;;3.97;0.93;;;;;;;25.80;52.20;96210.28;5037076;28;20247;-70
2023/10/13 10:59:04;;;;;;;2.90;1.10;;;;;;;25.66;51.82;96197.59;5037198;28;20203;-71
2023/10/13 11:01:38;;;;;;;3.08;1.10;;;;;;;25.71;51.62;96200.31;5035476;28;21356;-71
2023/10/13 11:04:13;;;;;;;1.70;1.17;;;;;;;25.82;50.62;96191.13;5036452;28;21015;-71
2023/10/13 11:06:46;;;;;;;7.80;1.60;;;;;;;25.92;49.66;96181.91;5036347;28;20266;-71
2023/10/13 11:09:21;;;;;;;2.22;1.20;;;;;;;25.61;50.15;96184.91;5036601;28;20200;-70
2023/10/13 11:11:52;;;;;;;4.53;1.50;;;;;;;25.70;50.65;96183.31;5036778;28;20577;-71
2023/10/13 11:14:23;;;;;;;3.17;1.27;;;;;;;26.01;50.09;96174.88;5036693;28;20316;-70
2023/10/13 11:16:54;;;;;;;5.65;1.20;;;;;;;26.21;50.01;96164.00;5036291;28;20228;-71
2023/10/13 11:19:27;;;;;;;3.83;1.20;;;;;;;26.02;49.55;96163.00;5036782;28;20213;-71
2023/10/13 11:21:55;;;;;;;1.90;0.98;;;;;;;25.82;52.89;96149.53;5036922;28;20228;-71
2023/10/13 11:24:22;;;;;;;2.55;1.00;;;;;;;25.86;51.23;96155.19;5036198;28;20300;-71
2023/10/13 11:26:50;;;;;;;5.22;0.93;;;;;;;25.74;50.68;96162.78;5036322;28;20197;-71
2023/10/13 11:29:18;;;;;;;4.65;1.15;;;;;;;25.70;49.80;96159.03;5037207;28;20551;-71
2023/10/13 11:31:46;;;;;;;1.95;0.90;;;;;;;25.71;50.69;96147.13;5036786;28;20208;-71
2023/10/13 11:34:17;;;;;;;6.13;1.02;;;;;;;25.74;49.11;96145.78;5036566;28;20228;-71
2023/10/13 11:36:43;;;;;;;2.10;0.80;;;;;;;25.89;48.78;96141.13;5036694;28;20212;-71
2023/10/13 11:39:17;;;;;;;1.60;0.80;;;;;;;25.76;46.95;96136.31;5035950;28;20201;-71
2023/10/13 11:41:50;;;;;;;2.58;1.20;;;;;;;26.12;47.15;96138.66;5036214;28;20225;-70
2023/10/13 11:44:30;;;;;;;1.63;1.05;;;;;;;26.14;48.56;96138.38;5036411;28;20260;-70
2023/10/13 11:47:03;;;;;;;1.45;0.88;;;;;;;26.30;46.76;96121.81;5036377;28;20384;-70
2023/10/13 11:49:40;;;;;;;4.28;0.80;;;;;;;26.44;47.88;96123.69;5036372;28;20683;-71
2023/10/13 11:52:15;;;;;;;2.67;0.90;;;;;;;26.06;46.37;96111.94;5035787;28;20208;-70
2023/10/13 11:54:42;;;;;;;1.50;0.73;;;;;;;26.37;45.28;96119.66;5037200;28;20235;-70
2023/10/13 11:57:09;;;;;;;3.47;1.00;;;;;;;26.31;45.83;96109.13;5035668;28;20574;-70
2023/10/13 11:59:44;;;;;;;3.30;0.93;;;;;;;26.31;44.97;96101.84;5036116;28;20246;-70
2023/10/13 12:04:57;;;;;;;4.60;1.23;;;;;;;26.32;46.63;96108.84;5035804;28;20220;-71
2023/10/13 12:07:27;;;;;;;3.10;1.17;;;;;;;26.29;45.29;96101.28;5035154;28;20239;-70
2023/10/13 12:10:15;;;;;;;3.70;0.98;;;;;;;26.36;45.95;96096.41;5035303;28;20215;-71
2023/10/13 12:12:43;;;;;;;2.35;1.02;;;;;;;26.37;45.42;96094.53;5035212;28;20242;-71
2023/10/13 12:15:14;;;;;;;2.15;1.00;;;;;;;26.46;46.27;96088.25;5035121;28;20201;-71
2023/10/13 12:17:44;;;;;;;2.08;0.55;;;;;;;26.34;45.98;96079.69;5035318;28;20591;-70
2023/10/13 12:20:18;;;;;;;5.85;0.93;;;;;;;26.56;44.92;96082.78;5034201;28;20663;-72
2023/10/13 12:22:54;;;;;;;6.65;0.70;;;;;;;26.49;44.64;96074.19;5035305;28;20320;-70
2023/10/13 12:25:25;;;;;;;2.28;0.63;;;;;;;26.67;44.42;96076.25;5035864;28;20209;-70
2023/10/13 12:27:56;;;;;;;3.97;0.60;;;;;;;26.87;44.61;96076.91;5035050;28;20212;-70
2023/10/13 12:30:36;;;;;;;1.48;0.90;;;;;;;26.71;44.21;96075.38;5035522;28;20296;-71
2023/10/13 12:33:08;;;;;;;2.17;1.02;;;;;;;27.03;44.81;96058.69;5035274;28;20499;-71
2023/10/13 12:35:44;;;;;;;4.47;1.00;;;;;;;27.24;45.15;96061.75;5034164;28;20209;-71
2023/10/13 12:38:36;;;;;;;4.22;0.80;;;;;;;27.06;45.25;96052.72;5033638;28;20230;-70
2023/10/13 12:49:38;;;;;;;1.50;0.73;;;;;;;26.88;45.54;96034.44;5034032;28;20537;-70
2023/10/13 12:52:15;;;;;;;5.80;0.98;;;;;;;27.02;45.89;96030.03;5034897;28;20259;-71
2023/10/13 12:54:46;;;;;;;5.47;1.35;;;;;;;27.04;44.84;96025.94;5035957;28;20204;-70
2023/10/13 12:57:13;;;;;;;2.88;0.82;;;;;;;27.03;45.45;96023.53;5035101;28;20274;-70
2023/10/13 12:59:40;;;;;;;3.10;1.00;;;;;;;27.06;44.88;96015.63;5034561;28;20205;-71
2023/10/13 13:02:14;;;;;;;2.83;0.85;;;;;;;27.17;44.88;96003.63;5034779;28;20842;-71
2023/10/13 13:04:44;;;;;;;1.23;0.70;;;;;;;27.21;44.73;96008.22;5034923;28;20208;-71
2023/10/13 13:07:13;;;;;;;3.38;0.63;;;;;;;27.10;46.31;96001.25;5035144;28;20201;-71
2023/10/13 13:09:40;;;;;;;1.77;0.90;;;;;;;27.10;45.41;96006.69;5033991;28;20665;-71
2023/10/13 13:12:07;;;;;;;1.95;1.23;;;;;;;27.25;45.43;96008.41;5034859;28;20671;-71
2023/10/13 13:14:34;;;;;;;2.92;0.80;;;;;;;27.13;46.14;95995.28;5034934;28;20212;-71
2023/10/13 13:17:04;;;;;;;1.10;0.50;;;;;;;27.12;44.81;95993.66;5035117;28;20596;-71
2023/10/13 13:19:33;;;;;;;2.35;1.05;;;;;;;27.25;45.90;95986.78;5034312;28;20490;-71
2023/10/13 13:22:00;;;;;;;8.95;1.45;;;;;;;27.19;45.96;95986.03;5033875;28;20225;-71
2023/10/13 13:24:29;;;;;;;1.45;0.60;;;;;;;27.29;44.87;95983.22;5035060;28;20242;-71
2023/10/13 13:26:56;;;;;;;2.17;1.08;;;;;;;27.23;46.34;95986.25;5034396;28;20271;-71
2023/10/13 13:29:23;;;;;;;4.10;0.80;;;;;;;27.10;46.46;95976.91;5035001;28;20293;-71
2023/10/13 13:31:49;;;;;;;1.48;0.90;;;;;;;27.08;46.32;95975.59;5038372;28;20205;-71
2023/10/13 13:34:16;;;;;;;1.30;0.73;;;;;;;27.27;46.36;95973.78;5037843;28;20234;-70
2023/10/13 13:36:44;;;;;;;4.03;1.20;;;;;;;27.14;46.77;95969.84;5038213;28;20284;-71
2023/10/13 13:39:11;;;;;;;5.97;1.08;;;;;;;27.05;44.55;95965.34;5037987;28;20448;-71